Startpagina
METAR-TAF:

METAR-TAF

Vliegvelden :

Koeweit, Koeweit

breedte: 29-13N, lengte: 047-59E, hoogte: 55 m

Actueel weer

Dit bericht is 15 minuten geleden gemaakt, om 05:00 UTC
Wind 5 kt uit het oostnoordoosten
Temperatuur 25°C
Vochtigheid 79%
Druk 1018 hPa
Zicht: 7000 m
Weinig wolken op 4000 ft
Gebroken wolken op 8000 ft

METAR: OKBK 220500Z 06005KT 7000 FEW040 BKN080 25/21 Q1018 NOSIG

Tijdstip: 08:15 (05:15 UTC)

Verwachting

Dit bericht is 6 uur en het 30 minuten geleden gemaakt, om 22:45 UTC
Verwachting geldig van 22 om 00 UTC tot 23 om 06 UTC
Wind 12 kt uit het zuiden met uitschieters tot 22 kt
Zicht: 8000 m
Verspreide wolken op 4000 ft
Gebroken wolken op 8000 ft
Tijdelijke
van 22 om 00 UTC tot 22 om 12 UTC
Zicht: 2500 m
Weinig wolken op 2500 ft, Cumulonimbus.

TAF: OKBK 212245Z 2200/2306 17012G22KT 8000 SCT040 BKN080 TEMPO 2200/2212 2500 -TSRA/BLDU FEW025CB

Waarnemingen en weersverwachtingen van meer dan 4000 vliegvelden (METAR en TAF).

De beschikbare stations zijn de gele en rode punten op de kaart.

Ga met uw muis naar het station om de naam te zien.

Klik dan om waarnemingen en weersverwachtingen te zien.

kaart wijzigen: klik op de groene knoppen met een zwart kruis om in te zoomen, op de groene knop met een streepje om uit te zoomen of op de groene pijlen voor aangrenzende kaarten.


METAR-TAF: